createdAt,value
2023-01-13T00:01:23.287Z,982.965
2023-01-13T00:02:23.780Z,982.930
2023-01-13T00:03:23.398Z,983.104
2023-01-13T00:04:23.927Z,983.134
2023-01-13T00:06:23.413Z,983.099
2023-01-13T00:07:23.009Z,982.987
2023-01-13T00:08:23.558Z,983.039
2023-01-13T00:09:23.081Z,982.948
2023-01-13T00:10:23.597Z,983.016
2023-01-13T00:11:23.086Z,982.993
2023-01-13T00:12:23.681Z,982.850
2023-01-13T00:13:23.125Z,983.021
2023-01-13T00:14:23.681Z,982.967
2023-01-13T00:15:23.165Z,982.946
2023-01-13T00:16:23.927Z,982.840
2023-01-13T00:17:23.373Z,982.886
2023-01-13T00:18:23.784Z,982.854
2023-01-13T00:19:23.273Z,982.864
2023-01-13T00:20:23.794Z,982.926
2023-01-13T00:22:23.705Z,982.921
2023-01-13T00:23:23.170Z,982.945
2023-01-13T00:24:23.701Z,982.879
2023-01-13T00:25:23.147Z,983.001
2023-01-13T00:26:23.640Z,982.855
2023-01-13T00:27:23.070Z,982.897
2023-01-13T00:28:23.461Z,982.852
2023-01-13T00:29:23.968Z,982.749
2023-01-13T00:30:23.465Z,982.789
2023-01-13T00:31:23.155Z,982.760
2023-01-13T00:32:23.663Z,982.834
2023-01-13T00:33:23.065Z,982.823
2023-01-13T00:34:23.510Z,982.771
2023-01-13T00:35:23.952Z,982.634
2023-01-13T00:36:23.453Z,982.728
2023-01-13T00:37:23.861Z,982.737
2023-01-13T00:38:23.326Z,982.732
2023-01-13T00:39:23.873Z,982.706
2023-01-13T00:40:23.459Z,982.667
2023-01-13T00:41:22.996Z,982.711
2023-01-13T00:42:23.457Z,982.616
2023-01-13T00:43:23.945Z,982.690
2023-01-13T00:44:23.449Z,982.610
2023-01-13T00:45:23.005Z,982.574
2023-01-13T00:46:23.557Z,982.662
2023-01-13T00:47:23.330Z,982.611
2023-01-13T00:48:23.801Z,982.621
2023-01-13T00:49:23.325Z,982.540
2023-01-13T00:50:23.865Z,982.653
2023-01-13T00:51:23.420Z,982.629
2023-01-13T00:52:23.673Z,982.511
2023-01-13T00:53:23.349Z,982.541
2023-01-13T00:54:23.028Z,982.498
2023-01-13T00:55:23.616Z,982.500
2023-01-13T00:56:38.324Z,982.426
2023-01-13T00:57:23.505Z,982.574
2023-01-13T00:58:23.939Z,982.516
2023-01-13T00:59:23.433Z,982.434
2023-01-13T01:00:23.955Z,982.530
2023-01-13T01:01:23.825Z,982.486
2023-01-13T01:02:23.316Z,982.485
2023-01-13T01:03:23.529Z,982.447
2023-01-13T01:04:23.112Z,982.404
2023-01-13T01:05:23.654Z,982.445
2023-01-13T01:06:23.150Z,982.282
2023-01-13T01:07:23.643Z,982.383
2023-01-13T01:08:23.115Z,982.375
2023-01-13T01:09:23.659Z,982.346
2023-01-13T01:10:23.099Z,982.487
2023-01-13T01:11:23.669Z,982.368
2023-01-13T01:12:23.195Z,982.453
2023-01-13T01:13:23.646Z,982.427
2023-01-13T01:14:23.346Z,982.275
2023-01-13T01:15:23.829Z,982.320
2023-01-13T01:16:23.660Z,982.439
2023-01-13T01:17:23.210Z,982.359
2023-01-13T01:18:23.677Z,982.370
2023-01-13T01:19:23.247Z,982.271
2023-01-13T01:20:23.843Z,982.355
2023-01-13T01:21:23.338Z,982.283
2023-01-13T01:22:23.877Z,982.352
2023-01-13T01:23:23.353Z,982.356
2023-01-13T01:24:23.863Z,982.520
2023-01-13T01:25:23.398Z,982.435
2023-01-13T01:26:23.888Z,982.344
2023-01-13T01:27:23.381Z,982.554
2023-01-13T01:28:23.959Z,982.442
2023-01-13T01:29:23.413Z,982.462
2023-01-13T01:30:23.897Z,982.396
2023-01-13T01:31:23.390Z,982.474
2023-01-13T01:32:23.118Z,982.356
2023-01-13T01:33:23.593Z,982.440
2023-01-13T01:34:23.153Z,982.415
2023-01-13T01:35:23.558Z,982.353
2023-01-13T01:36:23.029Z,982.487
2023-01-13T01:37:23.572Z,982.516
2023-01-13T01:38:24.020Z,982.434
2023-01-13T01:39:23.681Z,982.359
2023-01-13T01:40:23.274Z,982.343
2023-01-13T01:41:23.897Z,982.339
2023-01-13T01:42:23.440Z,982.307
2023-01-13T01:43:23.089Z,982.436
2023-01-13T01:44:23.730Z,982.217
2023-01-13T01:45:23.241Z,982.324
2023-01-13T01:46:23.797Z,982.306
2023-01-13T01:47:23.727Z,982.283
2023-01-13T01:48:23.201Z,982.184
2023-01-13T01:49:22.998Z,982.098
2023-01-13T01:50:23.538Z,982.218
2023-01-13T01:51:23.029Z,982.223
2023-01-13T01:52:23.515Z,982.162
2023-01-13T01:53:23.063Z,982.159
2023-01-13T01:54:23.672Z,982.183
2023-01-13T01:55:23.189Z,982.250
2023-01-13T01:56:23.659Z,982.132
2023-01-13T01:57:23.301Z,982.103
2023-01-13T01:58:23.829Z,982.012
2023-01-13T01:59:23.345Z,982.016
2023-01-13T02:00:23.825Z,982.057
2023-01-13T02:01:23.757Z,981.927
2023-01-13T02:02:23.958Z,981.975
2023-01-13T02:03:23.705Z,982.081
2023-01-13T02:04:23.174Z,981.960
2023-01-13T02:05:23.681Z,982.042
2023-01-13T02:06:23.098Z,981.898
2023-01-13T02:07:23.568Z,982.066
2023-01-13T02:08:23.214Z,982.021
2023-01-13T02:09:23.760Z,981.933
2023-01-13T02:10:23.277Z,981.895
2023-01-13T02:11:23.729Z,982.041
2023-01-13T02:12:23.218Z,981.990
2023-01-13T02:13:23.814Z,981.962
2023-01-13T02:14:23.474Z,981.940
2023-01-13T02:15:23.297Z,981.924
2023-01-13T02:16:23.950Z,981.943
2023-01-13T02:17:23.574Z,981.946
2023-01-13T02:18:23.341Z,981.967
2023-01-13T02:19:23.902Z,982.002
2023-01-13T02:20:23.376Z,982.033
2023-01-13T02:21:23.888Z,982.010
2023-01-13T02:22:23.470Z,981.902
2023-01-13T02:23:23.913Z,981.968
2023-01-13T02:24:23.524Z,981.846
2023-01-13T02:25:23.498Z,981.928
2023-01-13T02:26:23.578Z,981.869
2023-01-13T02:27:23.733Z,981.762
2023-01-13T02:28:23.671Z,981.814
2023-01-13T02:29:23.170Z,981.786
2023-01-13T02:30:23.876Z,981.708
2023-01-13T02:31:23.469Z,981.707
2023-01-13T02:32:23.223Z,981.734
2023-01-13T02:33:23.913Z,981.718
2023-01-13T02:34:23.339Z,981.759
2023-01-13T02:35:23.077Z,981.810
2023-01-13T02:36:23.542Z,981.687
2023-01-13T02:37:23.077Z,981.835
2023-01-13T02:38:23.570Z,981.748
2023-01-13T02:39:23.068Z,981.704
2023-01-13T02:40:23.632Z,981.761
2023-01-13T02:41:23.036Z,981.677
2023-01-13T02:42:23.555Z,981.723
2023-01-13T02:43:23.100Z,981.821
2023-01-13T02:44:23.633Z,981.583
2023-01-13T02:45:23.085Z,981.726
2023-01-13T02:46:23.182Z,981.698
2023-01-13T02:47:23.706Z,981.760
2023-01-13T02:48:23.311Z,981.712
2023-01-13T02:49:23.873Z,981.546
2023-01-13T02:50:23.449Z,981.756
2023-01-13T02:51:23.923Z,981.723
2023-01-13T02:52:23.546Z,981.743
2023-01-13T02:53:23.132Z,981.684
2023-01-13T02:54:23.645Z,981.708
2023-01-13T02:55:23.173Z,981.737
2023-01-13T02:56:23.777Z,981.682
2023-01-13T02:57:23.305Z,981.731
2023-01-13T02:58:23.772Z,981.660
2023-01-13T02:59:23.260Z,981.644
2023-01-13T03:00:23.812Z,981.511
2023-01-13T03:01:24.049Z,981.589
2023-01-13T03:02:23.664Z,981.619
2023-01-13T03:03:23.556Z,981.562
2023-01-13T03:04:23.030Z,981.505
2023-01-13T03:05:23.634Z,981.558
2023-01-13T03:06:23.216Z,981.514
2023-01-13T03:07:23.779Z,981.467
2023-01-13T03:08:23.752Z,981.553
2023-01-13T03:09:23.577Z,981.565
2023-01-13T03:10:23.182Z,981.501
2023-01-13T03:11:23.196Z,981.457
2023-01-13T03:12:23.769Z,981.542
2023-01-13T03:13:23.562Z,981.530
2023-01-13T03:14:23.167Z,981.519
2023-01-13T03:15:23.831Z,981.459
2023-01-13T03:16:23.418Z,981.419
2023-01-13T03:17:23.142Z,981.386
2023-01-13T03:18:23.748Z,981.392
2023-01-13T03:19:23.295Z,981.414
2023-01-13T03:20:23.899Z,981.401
2023-01-13T03:21:23.511Z,981.449
2023-01-13T03:22:23.264Z,981.439
2023-01-13T03:23:24.024Z,981.491
2023-01-13T03:24:23.520Z,981.458
2023-01-13T03:25:23.726Z,981.427
2023-01-13T03:26:23.332Z,981.453
2023-01-13T03:27:23.918Z,981.432
2023-01-13T03:28:23.519Z,981.387
2023-01-13T03:29:23.418Z,981.429
2023-01-13T03:30:23.141Z,981.373
2023-01-13T03:31:23.998Z,981.401
2023-01-13T03:32:23.618Z,981.396
2023-01-13T03:33:23.090Z,981.351
2023-01-13T03:34:23.671Z,981.297
2023-01-13T03:35:23.382Z,981.455
2023-01-13T03:36:23.941Z,981.333
2023-01-13T03:37:23.442Z,981.343
2023-01-13T03:38:23.965Z,981.367
2023-01-13T03:39:23.620Z,981.337
2023-01-13T03:40:23.153Z,981.382
2023-01-13T03:41:23.777Z,981.389
2023-01-13T03:42:23.346Z,981.402
2023-01-13T03:43:23.034Z,981.249
2023-01-13T03:44:23.686Z,981.270
2023-01-13T03:45:23.355Z,981.279
2023-01-13T03:46:23.096Z,981.398
2023-01-13T03:47:23.650Z,981.360
2023-01-13T03:48:23.380Z,981.360
2023-01-13T03:49:23.983Z,981.325
2023-01-13T03:50:23.581Z,981.234
2023-01-13T03:51:23.266Z,981.356
2023-01-13T03:52:23.955Z,981.490
2023-01-13T03:53:23.498Z,981.391
2023-01-13T03:54:23.032Z,981.341
2023-01-13T03:55:23.618Z,981.539
2023-01-13T03:56:23.143Z,981.480
2023-01-13T03:57:23.658Z,981.515
2023-01-13T03:58:23.543Z,981.460
2023-01-13T03:59:23.195Z,981.413
2023-01-13T04:00:23.854Z,981.502
2023-01-13T04:01:23.699Z,981.397
2023-01-13T04:02:23.813Z,981.464
2023-01-13T04:03:23.538Z,981.446
2023-01-13T04:04:23.572Z,981.491
2023-01-13T04:05:23.346Z,981.418
2023-01-13T04:06:23.968Z,981.406
2023-01-13T04:07:23.819Z,981.446
2023-01-13T04:08:23.395Z,981.429
2023-01-13T04:09:23.513Z,981.310
2023-01-13T04:10:23.125Z,981.491
2023-01-13T04:11:23.757Z,981.421
2023-01-13T04:13:23.183Z,981.319
2023-01-13T04:14:23.793Z,981.347
2023-01-13T04:15:23.506Z,981.266
2023-01-13T04:16:23.485Z,981.246
2023-01-13T04:17:23.291Z,981.356
2023-01-13T04:18:23.890Z,981.385
2023-01-13T04:19:23.515Z,981.262
2023-01-13T04:20:23.119Z,981.261
2023-01-13T04:21:23.837Z,981.363
2023-01-13T04:22:23.437Z,981.288
2023-01-13T04:23:23.953Z,981.331
2023-01-13T04:24:23.639Z,981.475
2023-01-13T04:25:23.200Z,981.388
2023-01-13T04:26:23.839Z,981.330
2023-01-13T04:27:23.417Z,981.384
2023-01-13T04:28:23.281Z,981.356
2023-01-13T04:29:23.893Z,981.438
2023-01-13T04:30:23.546Z,981.449
2023-01-13T04:31:23.408Z,981.382
2023-01-13T04:32:23.038Z,981.371
2023-01-13T04:33:23.670Z,981.137
2023-01-13T04:34:23.520Z,981.260
2023-01-13T04:35:23.143Z,981.328
2023-01-13T04:36:23.972Z,981.207
2023-01-13T04:37:23.463Z,981.437
2023-01-13T04:38:23.159Z,981.408
2023-01-13T04:40:23.206Z,981.396
2023-01-13T04:41:23.797Z,981.356
2023-01-13T04:42:23.324Z,981.385
2023-01-13T04:43:23.899Z,981.284
2023-01-13T04:44:23.407Z,981.406
2023-01-13T04:45:23.061Z,981.303
2023-01-13T04:46:23.945Z,981.325
2023-01-13T04:47:23.661Z,981.390
2023-01-13T04:48:23.317Z,981.241
2023-01-13T04:49:23.866Z,981.333
2023-01-13T04:50:23.457Z,981.187
2023-01-13T04:51:23.142Z,981.221
2023-01-13T04:52:23.687Z,981.341
2023-01-13T04:53:23.326Z,981.299
2023-01-13T04:54:23.992Z,981.342
2023-01-13T04:55:23.524Z,981.265
2023-01-13T04:56:23.143Z,981.241
2023-01-13T04:57:23.774Z,981.329
2023-01-13T04:58:23.473Z,981.264
2023-01-13T04:59:23.055Z,981.315
2023-01-13T05:00:23.706Z,981.045
2023-01-13T05:01:23.501Z,981.174
2023-01-13T05:02:23.865Z,981.153
2023-01-13T05:03:23.412Z,981.232
2023-01-13T05:04:24.134Z,981.181
2023-01-13T05:05:23.855Z,981.221
2023-01-13T05:06:23.575Z,981.304
2023-01-13T05:07:23.177Z,981.258
2023-01-13T05:08:23.777Z,981.304
2023-01-13T05:09:23.358Z,981.224
2023-01-13T05:10:24.112Z,981.342
2023-01-13T05:11:23.771Z,981.340
2023-01-13T05:12:23.358Z,981.393
2023-01-13T05:13:23.015Z,981.181
2023-01-13T05:14:23.594Z,981.306
2023-01-13T05:15:23.149Z,981.341
2023-01-13T05:16:23.946Z,981.255
2023-01-13T05:17:23.539Z,981.247
2023-01-13T05:18:23.059Z,981.342
2023-01-13T05:19:23.824Z,981.158
2023-01-13T05:20:23.343Z,981.281
2023-01-13T05:21:23.999Z,981.248
2023-01-13T05:22:23.617Z,981.221
2023-01-13T05:23:23.279Z,981.297
2023-01-13T05:24:23.984Z,981.248
2023-01-13T05:25:23.768Z,981.320
2023-01-13T05:26:23.960Z,981.286
2023-01-13T05:27:23.786Z,981.360
2023-01-13T05:28:23.416Z,981.276
2023-01-13T05:29:23.118Z,981.177
2023-01-13T05:30:23.750Z,981.243
2023-01-13T05:31:23.335Z,981.202
2023-01-13T05:32:23.139Z,981.216
2023-01-13T05:33:23.721Z,981.227
2023-01-13T05:34:23.470Z,981.251
2023-01-13T05:35:23.139Z,981.246
2023-01-13T05:36:23.753Z,981.213
2023-01-13T05:37:23.254Z,981.112
2023-01-13T05:38:23.875Z,981.144
2023-01-13T05:39:23.548Z,981.196
2023-01-13T05:40:23.170Z,981.022
2023-01-13T05:41:23.880Z,981.132
2023-01-13T05:42:23.480Z,981.083
2023-01-13T05:43:23.026Z,981.164
2023-01-13T05:44:23.541Z,981.178
2023-01-13T05:45:23.379Z,981.121
2023-01-13T05:46:23.950Z,981.266
2023-01-13T05:47:23.709Z,981.213
2023-01-13T05:48:23.638Z,981.063
2023-01-13T05:49:23.237Z,981.134
2023-01-13T05:50:23.326Z,981.183
2023-01-13T05:51:23.934Z,981.076
2023-01-13T05:52:23.470Z,981.111
2023-01-13T05:54:23.749Z,981.072
2023-01-13T05:55:23.599Z,981.144
2023-01-13T05:56:23.246Z,981.142
2023-01-13T05:57:23.886Z,981.229
2023-01-13T05:59:23.111Z,981.132
2023-01-13T06:00:23.720Z,981.108
2023-01-13T06:01:23.408Z,981.131
2023-01-13T06:02:23.071Z,981.098
2023-01-13T06:03:24.011Z,981.123
2023-01-13T06:04:23.697Z,981.069
2023-01-13T06:05:23.538Z,981.066
2023-01-13T06:06:23.161Z,981.151
2023-01-13T06:07:23.783Z,981.085
2023-01-13T06:08:23.308Z,981.162
2023-01-13T06:09:23.767Z,981.067
2023-01-13T06:10:23.436Z,980.925
2023-01-13T06:11:23.931Z,981.127
2023-01-13T06:12:23.496Z,981.108
2023-01-13T06:13:23.036Z,981.063
2023-01-13T06:14:23.562Z,981.152
2023-01-13T06:15:23.175Z,981.095
2023-01-13T06:16:23.810Z,980.989
2023-01-13T06:17:23.457Z,981.112
2023-01-13T06:18:23.040Z,981.128
2023-01-13T06:19:23.667Z,981.065
2023-01-13T06:20:23.281Z,980.891
2023-01-13T06:21:23.774Z,981.038
2023-01-13T06:22:23.259Z,980.977
2023-01-13T06:23:23.815Z,980.990
2023-01-13T06:24:23.346Z,981.096
2023-01-13T06:25:23.039Z,980.956
2023-01-13T06:26:23.593Z,981.089
2023-01-13T06:27:23.147Z,981.078
2023-01-13T06:28:23.779Z,981.113
2023-01-13T06:29:23.310Z,980.933
2023-01-13T06:30:23.861Z,981.062
2023-01-13T06:32:23.195Z,981.115
2023-01-13T06:33:23.840Z,980.915
2023-01-13T06:34:23.421Z,981.058
2023-01-13T06:35:23.039Z,980.964
2023-01-13T06:36:23.588Z,981.071
2023-01-13T06:37:23.170Z,981.027
2023-01-13T06:38:23.699Z,981.170
2023-01-13T06:39:23.308Z,981.123
2023-01-13T06:40:23.975Z,981.124
2023-01-13T06:41:23.599Z,981.158
2023-01-13T06:42:23.179Z,981.249
2023-01-13T06:43:23.791Z,981.058
2023-01-13T06:44:23.389Z,981.158
2023-01-13T06:45:23.928Z,981.196
2023-01-13T06:46:23.498Z,981.115
2023-01-13T06:47:23.302Z,981.238
2023-01-13T06:48:23.757Z,981.173
2023-01-13T06:49:23.380Z,981.056
2023-01-13T06:50:23.972Z,981.155
2023-01-13T06:51:23.530Z,981.068
2023-01-13T06:52:23.161Z,981.158
2023-01-13T06:53:23.686Z,981.084
2023-01-13T06:54:23.275Z,981.040
2023-01-13T06:55:23.878Z,981.021
2023-01-13T06:56:23.422Z,981.022
2023-01-13T06:57:23.149Z,981.022
2023-01-13T06:58:23.692Z,981.184
2023-01-13T06:59:23.251Z,981.209
2023-01-13T07:00:24.123Z,981.116
2023-01-13T07:01:24.036Z,981.168
2023-01-13T07:02:23.519Z,981.094
2023-01-13T07:03:23.514Z,981.146
2023-01-13T07:04:23.261Z,981.079
2023-01-13T07:05:23.008Z,981.106
2023-01-13T07:06:23.488Z,981.069
2023-01-13T07:07:23.044Z,981.214
2023-01-13T07:08:23.585Z,981.100
2023-01-13T07:09:23.271Z,981.156
2023-01-13T07:10:23.948Z,981.046
2023-01-13T07:11:23.437Z,981.099
2023-01-13T07:12:23.994Z,981.133
2023-01-13T07:13:23.598Z,981.166
2023-01-13T07:14:23.116Z,981.173
2023-01-13T07:15:23.772Z,981.018
2023-01-13T07:16:23.456Z,981.180
2023-01-13T07:17:23.112Z,981.185
2023-01-13T07:18:23.694Z,981.103
2023-01-13T07:19:23.226Z,981.134
2023-01-13T07:20:23.843Z,981.210
2023-01-13T07:21:23.402Z,981.121
2023-01-13T07:22:23.985Z,981.080
2023-01-13T07:23:23.732Z,981.136
2023-01-13T07:24:23.406Z,981.196
2023-01-13T07:25:23.163Z,981.103
2023-01-13T07:26:23.787Z,981.112
2023-01-13T07:27:23.377Z,981.126
2023-01-13T07:28:23.930Z,981.060
2023-01-13T07:29:23.530Z,981.089
2023-01-13T07:30:23.123Z,981.096
2023-01-13T07:31:23.976Z,981.067
2023-01-13T07:32:23.759Z,981.084
2023-01-13T07:33:23.388Z,980.962
2023-01-13T07:34:23.940Z,980.974
2023-01-13T07:35:23.647Z,980.957
2023-01-13T07:36:23.344Z,980.938
2023-01-13T07:37:23.967Z,980.928
2023-01-13T07:38:23.564Z,981.087
2023-01-13T07:39:23.427Z,981.014
2023-01-13T07:40:23.199Z,981.062
2023-01-13T07:41:23.865Z,981.180
2023-01-13T07:42:23.494Z,981.095
2023-01-13T07:43:23.056Z,980.974
2023-01-13T07:44:23.775Z,981.093
2023-01-13T07:45:23.402Z,981.002
2023-01-13T07:46:23.414Z,981.026
2023-01-13T07:47:23.029Z,980.885
2023-01-13T07:48:23.662Z,980.911
2023-01-13T07:49:23.269Z,980.985
2023-01-13T07:50:23.898Z,980.960
2023-01-13T07:51:23.143Z,981.053
2023-01-13T07:52:23.826Z,980.880
2023-01-13T07:53:23.410Z,981.010
2023-01-13T07:54:35.062Z,981.063
2023-01-13T07:55:23.822Z,980.896
2023-01-13T07:56:23.757Z,980.845
2023-01-13T07:57:23.367Z,980.964
2023-01-13T07:58:23.937Z,980.945
2023-01-13T07:59:23.606Z,980.864
2023-01-13T08:00:23.251Z,980.919
2023-01-13T08:01:23.277Z,980.923
2023-01-13T08:02:23.748Z,980.859
2023-01-13T08:03:23.458Z,980.947
2023-01-13T08:04:23.123Z,981.052
2023-01-13T08:05:23.830Z,980.981
2023-01-13T08:06:23.553Z,980.873
2023-01-13T08:07:23.226Z,980.975
2023-01-13T08:08:23.821Z,980.881
2023-01-13T08:09:23.484Z,980.953
2023-01-13T08:10:23.136Z,980.899
2023-01-13T08:11:23.843Z,980.916
2023-01-13T08:12:23.538Z,981.025
2023-01-13T08:13:23.941Z,980.966
2023-01-13T08:14:23.423Z,981.032
2023-01-13T08:15:23.089Z,981.032
2023-01-13T08:16:23.934Z,981.022
2023-01-13T08:17:23.879Z,981.035
2023-01-13T08:18:23.654Z,981.014
2023-01-13T08:19:23.383Z,981.124
2023-01-13T08:20:23.111Z,981.003
2023-01-13T08:21:24.020Z,981.114
2023-01-13T08:22:23.640Z,981.055
2023-01-13T08:23:23.381Z,981.067
2023-01-13T08:24:23.459Z,981.115
2023-01-13T08:25:23.269Z,981.090
2023-01-13T08:26:23.963Z,981.107
2023-01-13T08:27:23.955Z,981.018
2023-01-13T08:28:23.681Z,981.022
2023-01-13T08:29:23.373Z,981.023
2023-01-13T08:30:23.143Z,981.016
2023-01-13T08:31:23.244Z,981.058
2023-01-13T08:32:23.888Z,980.968
2023-01-13T08:33:23.580Z,980.899
2023-01-13T08:34:23.171Z,981.055
2023-01-13T08:35:23.992Z,981.132
2023-01-13T08:36:23.703Z,981.120
2023-01-13T08:37:23.377Z,981.182
2023-01-13T08:38:23.220Z,981.080
2023-01-13T08:39:23.952Z,981.106
2023-01-13T08:40:23.677Z,981.113
2023-01-13T08:41:23.396Z,981.123
2023-01-13T08:42:23.968Z,981.236
2023-01-13T08:43:23.752Z,981.151
2023-01-13T08:44:23.453Z,981.217
2023-01-13T08:45:23.279Z,981.150
2023-01-13T08:46:23.333Z,981.075
2023-01-13T08:47:23.971Z,981.309
2023-01-13T08:48:23.724Z,981.247
2023-01-13T08:49:23.943Z,981.301
2023-01-13T08:50:23.545Z,981.297
2023-01-13T08:51:23.460Z,981.259
2023-01-13T08:52:23.983Z,981.255
2023-01-13T08:53:23.578Z,981.201
2023-01-13T08:54:23.206Z,981.102
2023-01-13T08:55:24.017Z,981.227
2023-01-13T08:56:23.660Z,981.193
2023-01-13T08:57:23.524Z,981.417
2023-01-13T08:58:23.944Z,981.306
2023-01-13T08:59:23.526Z,981.382
2023-01-13T09:00:23.271Z,981.368
2023-01-13T09:01:23.414Z,981.511
2023-01-13T09:02:23.060Z,981.392
2023-01-13T09:03:23.828Z,981.418
2023-01-13T09:04:23.735Z,981.443
2023-01-13T09:05:23.564Z,981.448
2023-01-13T09:06:23.170Z,981.531
2023-01-13T09:07:23.813Z,981.529
2023-01-13T09:08:23.567Z,981.575
2023-01-13T09:09:23.268Z,981.531
2023-01-13T09:10:23.971Z,981.522
2023-01-13T09:11:23.750Z,981.642
2023-01-13T09:12:23.523Z,981.457
2023-01-13T09:13:23.237Z,981.619
2023-01-13T09:14:23.939Z,981.619
2023-01-13T09:15:23.946Z,981.611
2023-01-13T09:16:23.852Z,981.689
2023-01-13T09:17:23.785Z,981.642
2023-01-13T09:18:23.767Z,981.528
2023-01-13T09:19:23.559Z,981.597
2023-01-13T09:20:23.358Z,981.730
2023-01-13T09:21:24.011Z,981.607
2023-01-13T09:22:23.696Z,981.705
2023-01-13T09:23:23.331Z,981.663
2023-01-13T09:24:23.975Z,981.662
2023-01-13T09:25:23.652Z,981.651
2023-01-13T09:26:23.346Z,981.665
2023-01-13T09:27:24.019Z,981.796
2023-01-13T09:28:23.776Z,981.771
2023-01-13T09:29:23.435Z,981.769
2023-01-13T09:30:23.190Z,981.825
2023-01-13T09:31:23.987Z,981.970
2023-01-13T09:32:23.265Z,982.096
2023-01-13T09:33:23.904Z,982.318
2023-01-13T09:34:23.598Z,982.356
2023-01-13T09:35:23.280Z,982.447
2023-01-13T09:36:23.913Z,982.484
2023-01-13T09:37:23.539Z,982.443
2023-01-13T09:38:23.307Z,982.373
2023-01-13T09:39:23.140Z,982.369
2023-01-13T09:40:23.832Z,982.448
2023-01-13T09:41:23.552Z,982.436
2023-01-13T09:42:23.384Z,982.262
2023-01-13T09:43:23.224Z,982.328
2023-01-13T09:44:23.940Z,982.302
2023-01-13T09:45:23.613Z,982.450
2023-01-13T09:46:23.317Z,982.439
2023-01-13T09:47:23.204Z,982.420
2023-01-13T09:48:23.940Z,982.522
2023-01-13T09:49:23.562Z,982.413
2023-01-13T09:50:23.179Z,982.558
2023-01-13T09:51:24.005Z,982.479
2023-01-13T09:52:26.632Z,982.305
2023-01-13T09:53:23.413Z,982.390
2023-01-13T09:54:23.051Z,982.443
2023-01-13T09:55:23.707Z,982.399
2023-01-13T09:56:23.347Z,982.494
2023-01-13T09:57:23.247Z,982.301
2023-01-13T09:58:23.926Z,982.493
2023-01-13T09:59:23.523Z,982.465
2023-01-13T10:00:23.139Z,982.414
2023-01-13T10:01:23.276Z,982.379
2023-01-13T10:02:23.997Z,982.277
2023-01-13T10:03:23.752Z,982.398
2023-01-13T10:04:23.594Z,982.461
2023-01-13T10:05:23.565Z,982.263
2023-01-13T10:06:23.311Z,982.307
2023-01-13T10:07:25.407Z,982.219
2023-01-13T10:08:24.004Z,982.256
2023-01-13T10:09:23.613Z,982.136
2023-01-13T10:10:23.232Z,982.210
2023-01-13T10:11:23.870Z,982.086
2023-01-13T10:12:23.506Z,982.125
2023-01-13T10:13:23.361Z,982.094
2023-01-13T10:14:23.090Z,982.193
2023-01-13T10:15:23.735Z,982.021
2023-01-13T10:16:23.061Z,982.087
2023-01-13T10:17:23.788Z,982.143
2023-01-13T10:18:23.526Z,982.188
2023-01-13T10:19:23.213Z,982.042
2023-01-13T10:20:23.847Z,982.202
2023-01-13T10:21:23.505Z,982.144
2023-01-13T10:22:23.420Z,982.207
2023-01-13T10:23:23.122Z,982.208
2023-01-13T10:24:23.740Z,982.386
2023-01-13T10:25:23.415Z,982.435
2023-01-13T10:26:23.140Z,982.392
2023-01-13T10:27:23.844Z,982.319
2023-01-13T10:28:23.467Z,982.389
2023-01-13T10:29:23.060Z,982.299
2023-01-13T10:30:23.975Z,982.371
2023-01-13T10:31:23.773Z,982.513
2023-01-13T10:32:23.467Z,982.556
2023-01-13T10:34:23.789Z,982.633
2023-01-13T10:35:23.405Z,982.647
2023-01-13T10:36:23.060Z,982.653
2023-01-13T10:37:23.715Z,982.541
2023-01-13T10:38:23.414Z,982.725
2023-01-13T10:39:23.737Z,982.454
2023-01-13T10:40:23.397Z,982.636
2023-01-13T10:41:23.092Z,982.623
2023-01-13T10:42:23.773Z,982.738
2023-01-13T10:43:23.556Z,982.621
2023-01-13T10:44:23.264Z,982.763
2023-01-13T10:45:23.927Z,982.682
2023-01-13T10:46:23.730Z,982.785
2023-01-13T10:47:23.549Z,982.662
2023-01-13T10:48:23.202Z,982.598
2023-01-13T10:49:23.835Z,982.568
2023-01-13T10:50:23.681Z,982.506
2023-01-13T10:51:23.281Z,982.444
2023-01-13T10:52:23.294Z,982.405
2023-01-13T10:53:23.894Z,982.432
2023-01-13T10:54:23.462Z,982.420
2023-01-13T10:55:23.294Z,982.441
2023-01-13T10:56:23.075Z,982.499
2023-01-13T10:57:23.920Z,982.435
2023-01-13T10:58:23.547Z,982.303
2023-01-13T10:59:23.859Z,982.398
2023-01-13T11:00:23.656Z,982.531
2023-01-13T11:01:23.696Z,982.388
2023-01-13T11:02:26.343Z,982.323
2023-01-13T11:03:23.716Z,982.513
2023-01-13T11:04:23.599Z,982.277
2023-01-13T11:05:23.484Z,982.385
2023-01-13T11:06:23.127Z,982.421
2023-01-13T11:07:23.787Z,982.466
2023-01-13T11:08:23.477Z,982.469
2023-01-13T11:09:23.184Z,982.428
2023-01-13T11:10:23.856Z,982.518
2023-01-13T11:11:23.540Z,982.409
2023-01-13T11:12:23.389Z,982.449
2023-01-13T11:13:24.004Z,982.304
2023-01-13T11:14:23.656Z,982.305
2023-01-13T11:15:23.317Z,982.344
2023-01-13T11:16:23.119Z,982.292
2023-01-13T11:17:23.698Z,982.375
2023-01-13T11:18:23.386Z,982.355
2023-01-13T11:19:23.091Z,982.438
2023-01-13T11:20:23.964Z,982.274
2023-01-13T11:21:23.542Z,982.392
2023-01-13T11:22:23.357Z,982.298
2023-01-13T11:23:23.147Z,982.290
2023-01-13T11:24:23.943Z,982.340
2023-01-13T11:26:23.311Z,982.322
2023-01-13T11:27:24.008Z,982.379
2023-01-13T11:28:23.796Z,982.269
2023-01-13T11:29:23.467Z,982.246
2023-01-13T11:30:23.214Z,982.295
2023-01-13T11:31:23.955Z,982.301
2023-01-13T11:32:23.872Z,982.320
2023-01-13T11:33:23.435Z,982.179
2023-01-13T11:34:23.108Z,982.298
2023-01-13T11:35:23.990Z,982.312
2023-01-13T11:36:23.611Z,982.278
2023-01-13T11:37:23.272Z,982.316
2023-01-13T11:38:23.827Z,982.326
2023-01-13T11:39:23.523Z,982.328
2023-01-13T11:40:23.332Z,982.370
2023-01-13T11:41:23.223Z,982.266
2023-01-13T11:42:23.919Z,982.222
2023-01-13T11:43:23.534Z,982.354
2023-01-13T11:44:23.261Z,982.450
2023-01-13T11:45:23.478Z,982.468
2023-01-13T11:46:23.110Z,982.255
2023-01-13T11:47:23.973Z,982.471
2023-01-13T11:48:23.827Z,982.396
2023-01-13T11:49:23.580Z,982.408
2023-01-13T11:50:23.239Z,982.535
2023-01-13T11:51:23.971Z,982.451
2023-01-13T11:52:23.774Z,982.523
2023-01-13T11:53:23.470Z,982.403
2023-01-13T11:54:23.340Z,982.479
2023-01-13T11:55:23.062Z,982.323
2023-01-13T11:56:23.945Z,982.429
2023-01-13T11:57:23.633Z,982.418
2023-01-13T11:58:23.510Z,982.499
2023-01-13T11:59:23.614Z,982.528
2023-01-13T12:00:23.395Z,982.435
2023-01-13T12:01:23.422Z,982.387
2023-01-13T12:02:23.655Z,982.713
2023-01-13T12:03:23.499Z,982.529
2023-01-13T12:04:23.338Z,982.593
2023-01-13T12:05:23.951Z,982.762
2023-01-13T12:06:23.684Z,982.621
2023-01-13T12:07:23.474Z,982.476
2023-01-13T12:08:23.316Z,982.587
2023-01-13T12:09:23.316Z,982.495
2023-01-13T12:10:23.107Z,982.545
2023-01-13T12:11:23.873Z,982.518
2023-01-13T12:12:23.811Z,982.484
2023-01-13T12:13:23.983Z,982.640
2023-01-13T12:14:23.990Z,982.654
2023-01-13T12:15:23.958Z,982.540